createdAt,value
2022-07-25T00:02:25.410Z,10.30
2022-07-25T00:04:55.908Z,10.40
2022-07-25T00:07:24.672Z,9.73
2022-07-25T00:09:53.027Z,10.80
2022-07-25T00:12:21.481Z,10.07
2022-07-25T00:14:49.594Z,10.50
2022-07-25T00:17:17.836Z,10.20
2022-07-25T00:19:45.928Z,9.90
2022-07-25T00:22:15.737Z,10.50
2022-07-25T00:24:45.002Z,10.03
2022-07-25T00:27:14.191Z,11.30
2022-07-25T00:29:42.386Z,10.67
2022-07-25T00:32:13.009Z,9.37
2022-07-25T00:34:41.390Z,10.47
2022-07-25T00:37:10.065Z,9.57
2022-07-25T00:39:39.678Z,11.37
2022-07-25T00:42:08.045Z,10.70
2022-07-25T00:44:36.137Z,9.23
2022-07-25T00:47:04.741Z,9.87
2022-07-25T00:49:33.982Z,9.97
2022-07-25T00:52:02.418Z,9.47
2022-07-25T00:54:30.986Z,10.10
2022-07-25T00:57:00.525Z,8.90
2022-07-25T00:59:30.422Z,9.53
2022-07-25T01:01:58.616Z,9.13
2022-07-25T01:04:26.798Z,8.97
2022-07-25T01:06:54.885Z,9.03
2022-07-25T01:09:23.987Z,8.67
2022-07-25T01:11:52.415Z,9.47
2022-07-25T01:14:23.033Z,9.10
2022-07-25T01:16:51.224Z,9.83
2022-07-25T01:19:19.478Z,9.20
2022-07-25T01:21:49.110Z,9.60
2022-07-25T01:24:17.261Z,9.40
2022-07-25T01:26:45.350Z,9.57
2022-07-25T01:29:13.610Z,9.17
2022-07-25T01:31:41.805Z,9.47
2022-07-25T01:34:10.457Z,9.13
2022-07-25T01:36:38.640Z,9.53
2022-07-25T01:39:08.090Z,9.47
2022-07-25T01:41:36.293Z,9.03
2022-07-25T01:44:05.052Z,9.13
2022-07-25T01:46:33.443Z,8.93
2022-07-25T01:49:02.850Z,9.80
2022-07-25T01:51:32.226Z,9.80
2022-07-25T01:54:00.334Z,8.83
2022-07-25T01:56:31.789Z,9.00
2022-07-25T01:59:00.703Z,9.00
2022-07-25T02:01:28.904Z,9.67
2022-07-25T02:03:57.109Z,8.60
2022-07-25T02:06:25.497Z,8.73
2022-07-25T02:08:53.717Z,9.00
2022-07-25T02:11:22.053Z,9.27
2022-07-25T02:13:51.635Z,9.93
2022-07-25T02:16:19.807Z,9.57
2022-07-25T02:18:57.483Z,9.77
2022-07-25T02:21:26.133Z,9.07
2022-07-25T02:23:54.513Z,9.43
2022-07-25T02:26:23.807Z,9.53
2022-07-25T02:28:54.730Z,10.30
2022-07-25T02:31:22.933Z,9.73
2022-07-25T02:33:51.148Z,10.37
2022-07-25T02:36:19.346Z,9.80
2022-07-25T02:38:47.555Z,9.67
2022-07-25T02:41:15.751Z,9.37
2022-07-25T02:43:43.878Z,10.10
2022-07-25T02:46:13.659Z,10.47
2022-07-25T02:48:41.940Z,10.20
2022-07-25T02:51:10.132Z,9.87
2022-07-25T02:53:56.633Z,9.53
2022-07-25T02:56:29.784Z,9.77
2022-07-25T02:58:58.253Z,9.93
2022-07-25T03:01:27.928Z,9.57
2022-07-25T03:03:56.325Z,8.57
2022-07-25T03:06:25.327Z,8.93
2022-07-25T03:08:53.415Z,8.60
2022-07-25T03:11:22.405Z,9.27
2022-07-25T03:13:50.696Z,9.00
2022-07-25T03:16:18.967Z,8.67
2022-07-25T03:18:48.902Z,9.07
2022-07-25T03:21:17.079Z,9.13
2022-07-25T03:23:50.407Z,8.60
2022-07-25T03:26:21.048Z,8.70
2022-07-25T03:28:49.206Z,8.47
2022-07-25T03:31:17.545Z,8.47
2022-07-25T03:33:46.246Z,8.57
2022-07-25T03:36:15.869Z,8.60
2022-07-25T03:38:44.000Z,8.73
2022-07-25T03:41:12.115Z,8.57
2022-07-25T03:43:40.322Z,9.40
2022-07-25T03:46:08.532Z,8.20
2022-07-25T03:48:37.172Z,8.57
2022-07-25T03:51:07.249Z,8.13
2022-07-25T03:53:57.000Z,8.73
2022-07-25T03:56:25.570Z,8.83
2022-07-25T03:58:53.786Z,8.17
2022-07-25T04:01:22.274Z,9.13
2022-07-25T04:03:51.596Z,8.83
2022-07-25T04:06:19.903Z,8.27
2022-07-25T04:08:50.702Z,8.67
2022-07-25T04:11:19.344Z,8.47
2022-07-25T04:13:47.735Z,8.60
2022-07-25T04:16:22.090Z,7.87
2022-07-25T04:18:51.109Z,8.27
2022-07-25T04:21:20.139Z,7.40
2022-07-25T04:23:48.346Z,8.10
2022-07-25T04:26:18.071Z,8.03
2022-07-25T04:28:46.223Z,8.40
2022-07-25T04:31:14.431Z,8.33
2022-07-25T04:33:43.225Z,7.50
2022-07-25T04:36:11.733Z,8.20
2022-07-25T04:38:40.069Z,7.70
2022-07-25T04:41:08.158Z,7.97
2022-07-25T04:43:37.915Z,7.60
2022-07-25T04:46:06.246Z,8.63
2022-07-25T04:48:35.700Z,7.90
2022-07-25T04:51:03.995Z,7.53
2022-07-25T04:53:32.260Z,8.13
2022-07-25T04:56:00.356Z,8.17
2022-07-25T04:58:28.533Z,8.00
2022-07-25T05:00:58.735Z,8.33
2022-07-25T05:03:26.975Z,7.47
2022-07-25T05:05:55.209Z,7.07
2022-07-25T05:08:23.387Z,6.90
2022-07-25T05:10:51.563Z,6.90
2022-07-25T05:13:22.195Z,6.70
2022-07-25T05:15:50.350Z,6.83
2022-07-25T05:18:20.089Z,6.93
2022-07-25T05:20:48.325Z,6.80
2022-07-25T05:23:16.449Z,7.03
2022-07-25T05:25:45.021Z,6.85
2022-07-25T05:28:18.028Z,6.88
2022-07-25T05:30:49.093Z,6.40
2022-07-25T05:33:17.295Z,6.30
2022-07-25T05:35:54.832Z,6.40
2022-07-25T05:38:23.325Z,6.55
2022-07-25T05:40:52.492Z,6.22
2022-07-25T05:43:20.725Z,6.00
2022-07-25T05:45:48.868Z,6.93
2022-07-25T05:48:17.411Z,6.50
2022-07-25T05:50:46.260Z,6.35
2022-07-25T05:53:16.101Z,6.47
2022-07-25T05:55:44.282Z,6.28
2022-07-25T05:58:12.436Z,6.85
2022-07-25T06:00:40.632Z,6.83
2022-07-25T06:03:08.864Z,6.83
2022-07-25T06:05:37.103Z,6.30
2022-07-25T06:08:05.495Z,7.03
2022-07-25T06:10:36.769Z,6.83
2022-07-25T06:13:05.731Z,6.70
2022-07-25T06:15:35.968Z,6.50
2022-07-25T06:18:04.222Z,6.87
2022-07-25T06:20:32.432Z,6.87
2022-07-25T06:23:01.015Z,6.63
2022-07-25T06:25:29.210Z,7.10
2022-07-25T06:27:59.008Z,6.93
2022-07-25T06:30:27.189Z,7.10
2022-07-25T06:32:55.516Z,7.27
2022-07-25T06:35:24.696Z,7.10
2022-07-25T06:37:54.003Z,6.80
2022-07-25T06:40:22.176Z,7.73
2022-07-25T06:42:51.434Z,7.10
2022-07-25T06:45:21.501Z,7.70
2022-07-25T06:47:50.048Z,7.80
2022-07-25T06:50:21.243Z,7.53
2022-07-25T06:52:49.884Z,7.30
2022-07-25T06:55:18.218Z,6.77
2022-07-25T06:57:46.449Z,7.20
2022-07-25T07:00:15.783Z,7.33
2022-07-25T07:02:53.400Z,7.67
2022-07-25T07:05:22.424Z,7.23
2022-07-25T07:07:50.855Z,7.97
2022-07-25T07:10:19.909Z,7.60
2022-07-25T07:12:48.267Z,7.33
2022-07-25T07:15:18.333Z,7.70
2022-07-25T07:17:46.522Z,7.00
2022-07-25T07:20:16.134Z,7.90
2022-07-25T07:22:47.987Z,7.47
2022-07-25T07:25:16.748Z,7.27
2022-07-25T07:27:45.616Z,6.83
2022-07-25T07:30:15.011Z,7.17
2022-07-25T07:32:44.217Z,7.53
2022-07-25T07:35:12.782Z,7.30
2022-07-25T07:37:43.822Z,7.77
2022-07-25T07:40:16.860Z,7.37
2022-07-25T07:42:47.867Z,7.37
2022-07-25T07:45:18.429Z,7.43
2022-07-25T07:47:48.907Z,7.47
2022-07-25T07:50:19.323Z,7.50
2022-07-25T07:52:49.731Z,7.70
2022-07-25T07:55:36.527Z,7.40
2022-07-25T07:58:07.370Z,7.20
2022-07-25T08:00:39.356Z,7.07
2022-07-25T08:03:08.984Z,7.23
2022-07-25T08:05:39.004Z,7.67
2022-07-25T08:08:11.172Z,7.70
2022-07-25T08:10:41.943Z,7.67
2022-07-25T08:13:18.053Z,7.80
2022-07-25T08:15:47.875Z,7.97
2022-07-25T08:18:17.123Z,7.83
2022-07-25T08:20:46.795Z,7.87
2022-07-25T08:23:16.646Z,7.50
2022-07-25T08:25:45.548Z,9.13
2022-07-25T08:28:14.545Z,7.30
2022-07-25T08:30:43.616Z,7.50
2022-07-25T08:33:16.347Z,8.27
2022-07-25T08:35:49.122Z,7.47
2022-07-25T08:38:18.889Z,7.17
2022-07-25T08:40:47.832Z,6.90
2022-07-25T08:43:17.554Z,7.70
2022-07-25T08:45:48.077Z,7.13
2022-07-25T08:48:19.640Z,6.83
2022-07-25T08:50:49.408Z,7.30
2022-07-25T08:53:36.297Z,7.03
2022-07-25T08:56:12.174Z,7.43
2022-07-25T08:58:44.334Z,7.53
2022-07-25T09:01:13.186Z,6.80
2022-07-25T09:03:43.151Z,7.25
2022-07-25T09:06:19.957Z,6.90
2022-07-25T09:08:57.852Z,7.13
2022-07-25T09:11:34.244Z,7.07
2022-07-25T09:14:05.824Z,6.82
2022-07-25T09:16:40.150Z,7.00
2022-07-25T09:19:15.749Z,7.25
2022-07-25T09:21:45.893Z,7.32
2022-07-25T09:24:18.155Z,6.97
2022-07-25T09:26:48.018Z,6.97
2022-07-25T09:29:21.665Z,7.47
2022-07-25T09:31:50.018Z,7.15
2022-07-25T09:34:30.951Z,6.93
2022-07-25T09:36:59.547Z,7.00
2022-07-25T09:39:46.085Z,7.20
2022-07-25T09:42:26.547Z,6.80
2022-07-25T09:45:06.560Z,6.97
2022-07-25T09:47:36.802Z,6.63
2022-07-25T09:50:06.050Z,7.07
2022-07-25T09:52:34.582Z,6.80
2022-07-25T09:55:06.555Z,6.80
2022-07-25T09:57:34.926Z,6.77
2022-07-25T10:00:03.988Z,6.38
2022-07-25T10:02:45.593Z,6.80
2022-07-25T10:05:16.869Z,6.88
2022-07-25T10:07:48.626Z,8.18
2022-07-25T10:10:29.130Z,6.57
2022-07-25T10:13:10.166Z,7.15
2022-07-25T10:15:46.726Z,6.43
2022-07-25T10:18:18.260Z,6.65
2022-07-25T10:20:48.290Z,6.38
2022-07-25T10:23:25.336Z,6.80
2022-07-25T10:26:09.692Z,6.18
2022-07-25T10:28:40.489Z,6.50
2022-07-25T10:31:36.330Z,6.05
2022-07-25T10:34:06.621Z,6.30
2022-07-25T10:36:46.148Z,6.70
2022-07-25T10:39:15.947Z,6.55
2022-07-25T10:41:51.778Z,5.90
2022-07-25T10:44:20.390Z,6.93
2022-07-25T10:46:50.387Z,6.75
2022-07-25T10:49:29.104Z,5.88
2022-07-25T10:52:01.046Z,6.38
2022-07-25T10:54:35.959Z,6.28
2022-07-25T10:57:07.321Z,6.18
2022-07-25T10:59:40.068Z,5.95
2022-07-25T11:02:16.385Z,5.50
2022-07-25T11:04:45.389Z,6.28
2022-07-25T11:07:15.803Z,5.30
2022-07-25T11:09:45.140Z,5.72
2022-07-25T11:12:18.049Z,5.45
2022-07-25T11:14:47.935Z,5.70
2022-07-25T11:17:24.024Z,5.05
2022-07-25T11:19:57.489Z,6.00
2022-07-25T11:22:26.620Z,5.28
2022-07-25T11:24:58.062Z,5.65
2022-07-25T11:27:29.290Z,6.78
2022-07-25T11:30:08.033Z,5.80
2022-07-25T11:32:40.874Z,6.10
2022-07-25T11:35:10.111Z,5.88
2022-07-25T11:37:41.375Z,6.15
2022-07-25T11:40:11.032Z,5.75
2022-07-25T11:42:45.594Z,5.80
2022-07-25T11:45:19.098Z,5.40
2022-07-25T11:47:48.980Z,5.55
2022-07-25T11:50:17.430Z,6.10
2022-07-25T11:52:46.527Z,5.45
2022-07-25T11:55:18.111Z,5.20
2022-07-25T11:57:48.901Z,5.68
2022-07-25T12:00:20.916Z,5.70
2022-07-25T12:02:58.183Z,6.55
2022-07-25T12:05:33.786Z,9.68
2022-07-25T12:08:10.658Z,5.95
2022-07-25T12:10:39.521Z,6.10
2022-07-25T12:13:10.702Z,6.10
2022-07-25T12:15:40.965Z,5.82
2022-07-25T12:18:10.740Z,6.10
2022-07-25T12:20:41.238Z,6.18
2022-07-25T12:23:11.247Z,6.05
2022-07-25T12:25:40.622Z,5.95
2022-07-25T12:28:10.905Z,6.13
2022-07-25T12:30:40.455Z,6.10
2022-07-25T12:33:09.155Z,5.72
2022-07-25T12:35:38.221Z,6.28
2022-07-25T12:38:07.071Z,6.13
2022-07-25T12:40:35.562Z,5.63
2022-07-25T12:43:04.815Z,5.60
2022-07-25T12:45:35.030Z,5.70
2022-07-25T12:48:03.267Z,6.53
2022-07-25T12:50:31.629Z,5.85
2022-07-25T12:52:59.998Z,5.28
2022-07-25T12:55:28.373Z,5.60
2022-07-25T12:57:56.671Z,5.75
2022-07-25T13:00:25.609Z,6.15
2022-07-25T13:02:57.038Z,5.95
2022-07-25T13:05:26.714Z,6.05
2022-07-25T13:07:54.920Z,5.90
2022-07-25T13:10:23.201Z,6.55
2022-07-25T13:12:51.855Z,6.45
2022-07-25T13:15:22.466Z,6.10
2022-07-25T13:17:51.387Z,5.75
2022-07-25T13:20:21.436Z,6.03
2022-07-25T13:22:49.913Z,5.97
2022-07-25T13:25:18.466Z,6.03
2022-07-25T13:27:48.576Z,5.88
2022-07-25T13:30:17.177Z,6.20
2022-07-25T13:32:45.465Z,5.90
2022-07-25T13:35:16.469Z,5.85
2022-07-25T13:37:49.950Z,5.43
2022-07-25T13:40:18.332Z,5.97
2022-07-25T13:42:46.502Z,5.32
2022-07-25T13:45:15.900Z,4.85
2022-07-25T13:47:44.233Z,5.97
2022-07-25T13:50:14.926Z,5.85
2022-07-25T13:52:43.100Z,5.45
2022-07-25T13:55:12.963Z,5.78
2022-07-25T13:57:41.153Z,5.40
2022-07-25T14:00:10.703Z,5.95
2022-07-25T14:02:38.930Z,5.80
2022-07-25T14:05:07.547Z,6.10
2022-07-25T14:07:36.153Z,5.10
2022-07-25T14:10:06.051Z,5.50
2022-07-25T14:12:36.627Z,5.38
2022-07-25T14:15:05.771Z,5.32
2022-07-25T14:17:35.318Z,5.10
2022-07-25T14:20:03.784Z,5.57
2022-07-25T14:22:31.973Z,5.10
2022-07-25T14:25:00.201Z,5.40
2022-07-25T14:27:28.771Z,5.15
2022-07-25T14:29:58.352Z,5.20
2022-07-25T14:32:27.015Z,5.20
2022-07-25T14:34:55.181Z,5.50
2022-07-25T14:37:23.607Z,5.38
2022-07-25T14:39:53.535Z,5.60
2022-07-25T14:42:21.864Z,5.20
2022-07-25T14:44:50.226Z,5.30
2022-07-25T14:47:22.234Z,4.78
2022-07-25T14:49:51.308Z,7.05
2022-07-25T14:52:19.784Z,7.60
2022-07-25T14:54:48.031Z,5.93
2022-07-25T14:57:16.535Z,5.75
2022-07-25T14:59:44.711Z,5.50
2022-07-25T15:02:12.995Z,5.63
2022-07-25T15:04:43.863Z,4.90
2022-07-25T15:07:12.206Z,5.00
2022-07-25T15:09:40.682Z,5.57
2022-07-25T15:12:13.419Z,6.55
2022-07-25T15:14:44.788Z,6.65
2022-07-25T15:17:13.682Z,6.72
2022-07-25T15:19:49.565Z,6.45
2022-07-25T15:22:17.951Z,6.45
2022-07-25T15:25:21.472Z,6.65
2022-07-25T15:27:34.941Z,6.50
2022-07-25T15:30:03.149Z,6.15
2022-07-25T15:32:31.482Z,6.07
2022-07-25T15:35:01.163Z,6.22
2022-07-25T15:37:30.014Z,6.30
2022-07-25T15:39:58.347Z,6.05
2022-07-25T15:42:29.191Z,5.90
2022-07-25T15:45:34.080Z,6.00
2022-07-25T15:47:56.642Z,6.53
2022-07-25T15:50:26.304Z,6.43
2022-07-25T15:52:54.529Z,6.70
2022-07-25T15:55:22.942Z,6.75
2022-07-25T15:57:52.888Z,7.32
2022-07-25T16:00:24.834Z,6.65
2022-07-25T16:02:57.349Z,7.05
2022-07-25T16:05:27.673Z,6.47
2022-07-25T16:07:56.133Z,6.45
2022-07-25T16:10:24.469Z,6.90
2022-07-25T16:12:52.667Z,6.70
2022-07-25T16:15:21.390Z,6.70
2022-07-25T16:17:53.077Z,7.07
2022-07-25T16:20:21.750Z,6.40
2022-07-25T16:22:56.096Z,6.82
2022-07-25T16:25:25.061Z,8.05
2022-07-25T16:27:53.746Z,12.48
2022-07-25T16:30:22.479Z,6.80
2022-07-25T16:32:50.873Z,7.28
2022-07-25T16:35:19.483Z,9.85
2022-07-25T16:37:48.328Z,11.85
2022-07-25T16:40:18.115Z,7.32
2022-07-25T16:42:49.156Z,7.40
2022-07-25T16:45:21.086Z,7.60
2022-07-25T16:47:56.984Z,6.97
2022-07-25T16:50:28.455Z,7.30
2022-07-25T16:52:56.797Z,7.43
2022-07-25T16:55:26.460Z,8.13
2022-07-25T16:57:55.105Z,7.30
2022-07-25T17:00:23.350Z,8.52
2022-07-25T17:02:51.722Z,7.38
2022-07-25T17:05:22.677Z,8.35
2022-07-25T17:07:59.256Z,7.93
2022-07-25T17:10:30.087Z,8.32
2022-07-25T17:13:00.453Z,7.78
2022-07-25T17:15:28.660Z,8.18
2022-07-25T17:17:57.022Z,8.30
2022-07-25T17:20:25.951Z,8.27
2022-07-25T17:22:54.463Z,8.45
2022-07-25T17:25:22.878Z,7.68
2022-07-25T17:27:52.414Z,10.30
2022-07-25T17:30:20.669Z,11.27
2022-07-25T17:32:48.960Z,15.57
2022-07-25T17:35:17.166Z,15.50
2022-07-25T17:37:45.485Z,30.40
2022-07-25T17:40:14.192Z,28.13
2022-07-25T17:42:45.414Z,8.45
2022-07-25T17:45:16.571Z,8.57
2022-07-25T17:47:47.101Z,8.95
2022-07-25T17:50:17.018Z,9.10
2022-07-25T17:52:45.496Z,9.93
2022-07-25T17:55:15.099Z,9.20
2022-07-25T17:57:45.621Z,9.30
2022-07-25T18:00:16.398Z,8.73
2022-07-25T18:02:44.894Z,8.90
2022-07-25T18:05:13.141Z,9.77
2022-07-25T18:07:45.310Z,8.77
2022-07-25T18:10:14.062Z,9.07
2022-07-25T18:12:42.501Z,9.10
2022-07-25T18:15:12.859Z,8.82
2022-07-25T18:17:43.997Z,9.77
2022-07-25T18:20:13.857Z,8.75
2022-07-25T18:22:42.494Z,9.25
2022-07-25T18:25:12.644Z,9.73
2022-07-25T18:27:42.405Z,11.50
2022-07-25T18:30:11.745Z,10.13
2022-07-25T18:32:40.480Z,10.05
2022-07-25T18:35:12.156Z,9.80
2022-07-25T18:37:40.506Z,9.82
2022-07-25T18:40:09.944Z,9.45
2022-07-25T18:42:38.882Z,8.88
2022-07-25T18:45:08.111Z,10.02
2022-07-25T18:47:36.370Z,9.00
2022-07-25T18:50:06.082Z,9.48
2022-07-25T18:52:37.592Z,9.80
2022-07-25T18:55:09.489Z,10.70
2022-07-25T18:57:40.602Z,9.30
2022-07-25T19:00:20.064Z,10.48
2022-07-25T19:03:02.966Z,11.13
2022-07-25T19:05:31.930Z,10.48
2022-07-25T19:08:03.541Z,10.63
2022-07-25T19:10:31.984Z,10.18
2022-07-25T19:13:01.500Z,10.20
2022-07-25T19:15:35.645Z,9.90
2022-07-25T19:18:05.785Z,10.63
2022-07-25T19:20:34.276Z,10.10
2022-07-25T19:23:04.088Z,10.53
2022-07-25T19:25:34.153Z,9.57
2022-07-25T19:28:02.796Z,9.95
2022-07-25T19:30:31.658Z,9.30
2022-07-25T19:33:00.227Z,9.53
2022-07-25T19:35:28.657Z,9.43
2022-07-25T19:37:56.952Z,9.97
2022-07-25T19:40:27.771Z,9.27
2022-07-25T19:42:56.202Z,10.20
2022-07-25T19:45:27.368Z,9.87
2022-07-25T19:47:55.872Z,9.90
2022-07-25T19:50:24.573Z,9.30
2022-07-25T19:52:53.139Z,9.75
2022-07-25T19:55:22.976Z,9.77
2022-07-25T19:57:53.138Z,9.15
2022-07-25T20:00:29.783Z,10.27
2022-07-25T20:02:58.254Z,10.23
2022-07-25T20:05:28.882Z,10.17
2022-07-25T20:07:57.410Z,9.77
2022-07-25T20:10:26.941Z,9.67
2022-07-25T20:13:01.097Z,10.33
2022-07-25T20:15:30.053Z,9.90
2022-07-25T20:17:58.597Z,9.73
2022-07-25T20:20:28.049Z,9.73
2022-07-25T20:22:56.572Z,9.93
2022-07-25T20:25:25.373Z,9.77
2022-07-25T20:27:59.126Z,9.60
2022-07-25T20:30:32.909Z,10.10
2022-07-25T20:33:05.375Z,10.13
2022-07-25T20:35:38.180Z,9.97
2022-07-25T20:38:09.845Z,10.17
2022-07-25T20:40:46.318Z,10.00
2022-07-25T20:43:21.074Z,10.07
2022-07-25T20:45:50.363Z,10.33
2022-07-25T20:48:18.929Z,9.40
2022-07-25T20:50:47.306Z,10.60
2022-07-25T20:53:15.588Z,11.33
2022-07-25T20:55:43.981Z,10.67
2022-07-25T20:58:12.129Z,10.40
2022-07-25T21:00:42.124Z,10.90
2022-07-25T21:03:10.441Z,11.17
2022-07-25T21:05:39.670Z,10.77
2022-07-25T21:08:08.331Z,10.90
2022-07-25T21:10:36.535Z,10.67
2022-07-25T21:13:04.976Z,10.80
2022-07-25T21:15:33.388Z,11.13
2022-07-25T21:18:02.995Z,11.00
2022-07-25T21:20:31.393Z,10.60
2022-07-25T21:22:59.827Z,10.30
2022-07-25T21:25:28.190Z,10.13
2022-07-25T21:27:56.478Z,10.50
2022-07-25T21:30:24.653Z,10.47
2022-07-25T21:32:52.827Z,11.10
2022-07-25T21:35:22.348Z,11.73
2022-07-25T21:37:50.542Z,12.10
2022-07-25T21:40:18.803Z,11.30
2022-07-25T21:42:47.000Z,10.53
2022-07-25T21:45:15.221Z,10.57
2022-07-25T21:47:43.345Z,11.17
2022-07-25T21:50:29.308Z,11.47
2022-07-25T21:52:58.867Z,10.33
2022-07-25T21:55:27.269Z,10.73
2022-07-25T21:57:55.663Z,10.37
2022-07-25T22:00:24.021Z,10.23
2022-07-25T22:02:52.177Z,9.93
2022-07-25T22:05:20.841Z,10.33
2022-07-25T22:07:50.532Z,9.97
2022-07-25T22:10:21.363Z,10.20
2022-07-25T22:12:49.762Z,10.93
2022-07-25T22:15:17.912Z,10.77
2022-07-25T22:17:49.534Z,10.50
2022-07-25T22:20:18.830Z,10.60
2022-07-25T22:22:47.361Z,9.80
2022-07-25T22:25:16.799Z,10.17
2022-07-25T22:27:46.543Z,10.50
2022-07-25T22:30:19.183Z,10.70
2022-07-25T22:32:48.695Z,10.40
2022-07-25T22:35:16.927Z,11.30
2022-07-25T22:37:46.314Z,10.17
2022-07-25T22:40:14.807Z,9.73
2022-07-25T22:42:43.956Z,8.80
2022-07-25T22:45:13.973Z,10.10
2022-07-25T22:47:42.080Z,9.20
2022-07-25T22:50:11.237Z,9.37
2022-07-25T22:52:39.485Z,8.80
2022-07-25T22:55:08.516Z,8.90
2022-07-25T22:57:37.791Z,9.20
2022-07-25T23:00:09.345Z,9.57
2022-07-25T23:02:39.093Z,9.23
2022-07-25T23:05:08.385Z,9.83
2022-07-25T23:07:36.623Z,9.10
2022-07-25T23:10:06.463Z,9.63
2022-07-25T23:12:34.586Z,8.90
2022-07-25T23:15:02.899Z,9.50
2022-07-25T23:17:31.042Z,8.77
2022-07-25T23:20:00.609Z,9.47
2022-07-25T23:22:30.249Z,9.60
2022-07-25T23:24:58.660Z,9.17
2022-07-25T23:27:27.665Z,9.13
2022-07-25T23:29:55.735Z,8.73
2022-07-25T23:32:24.016Z,9.30
2022-07-25T23:34:52.131Z,8.97
2022-07-25T23:37:21.654Z,8.77
2022-07-25T23:39:50.741Z,9.57
2022-07-25T23:42:18.923Z,8.67
2022-07-25T23:44:47.277Z,9.70
2022-07-25T23:47:15.607Z,10.50
2022-07-25T23:49:46.191Z,9.53
2022-07-25T23:52:14.388Z,10.47
2022-07-25T23:54:44.020Z,10.30
2022-07-25T23:57:12.768Z,10.23
2022-07-25T23:59:43.040Z,10.50
